Time;durP1;ratioP1;P1;durP2;ratioP2;P2;SDS_P1;SDS_P2;PMS_P1;PMS_P2;Temp;Humidity;BMP_temperature;BMP_pressure;BME280_temperature;BME280_humidity;BME280_pressure;Samples;Min_cycle;Max_cycle;Signal;HPM_P1;HPM_P2
2022/08/21 09:29:02;;;;;;;23.58;15.05;;;27.10;76.30;;;;;;6145289;27;76379;-59
2022/08/21 09:32:02;;;;;;;24.00;15.07;;;27.10;76.70;;;;;;6118712;28;84556;-57
2022/08/21 09:35:03;;;;;;;26.48;15.23;;;27.10;76.70;;;;;;6115467;28;85765;-60
2022/08/21 09:38:05;;;;;;;23.30;15.55;;;27.20;76.60;;;;;;6097667;28;83821;-54
2022/08/21 09:41:06;;;;;;;31.55;14.70;;;27.30;76.50;;;;;;6102866;28;83951;-59
2022/08/21 09:44:06;;;;;;;27.75;15.10;;;27.30;76.10;;;;;;6115161;28;85836;-59
2022/08/21 09:47:07;;;;;;;30.67;16.30;;;27.40;76.40;;;;;;6099383;28;85193;-56
2022/08/21 09:50:08;;;;;;;29.83;18.48;;;27.40;77.10;;;;;;6093839;28;84283;-57
2022/08/21 09:53:08;;;;;;;25.83;16.02;;;27.50;76.70;;;;;;6095584;28;87643;-59
2022/08/21 09:59:30;;;;;;;30.55;16.95;;;27.60;77.40;;;;;;6118338;28;85989;-66
2022/08/21 10:02:31;;;;;;;32.78;17.25;;;27.60;78.00;;;;;;6116884;28;84469;-60
2022/08/21 10:05:31;;;;;;;33.50;17.05;;;27.70;80.30;;;;;;6114361;28;83811;-67
2022/08/21 10:08:32;;;;;;;30.20;16.50;;;27.70;78.20;;;;;;6115418;28;84787;-61
2022/08/21 10:11:33;;;;;;;30.73;18.02;;;27.80;79.40;;;;;;6121925;28;84047;-67
2022/08/21 10:14:33;;;;;;;24.40;15.70;;;27.80;79.80;;;;;;6148489;28;83643;-63
2022/08/21 10:17:34;;;;;;;28.30;16.25;;;27.80;79.90;;;;;;6154950;28;88495;-60
2022/08/21 10:20:36;;;;;;;40.53;20.85;;;27.90;80.20;;;;;;6142272;28;83964;-60
2022/08/21 10:23:37;;;;;;;37.50;19.00;;;27.80;78.50;;;;;;6166519;28;83117;-60
2022/08/21 10:26:37;;;;;;;33.83;17.77;;;27.50;78.60;;;;;;6164414;28;86971;-60
2022/08/21 10:29:38;;;;;;;42.42;19.48;;;27.60;78.70;;;;;;6148843;28;84647;-70
2022/08/21 10:32:38;;;;;;;32.33;18.70;;;27.60;79.20;;;;;;6138048;22;85269;-61
2022/08/21 10:35:39;;;;;;;35.70;17.95;;;27.70;79.10;;;;;;6149063;28;86203;-61
2022/08/21 10:38:39;;;;;;;33.13;19.02;;;27.70;78.20;;;;;;6066974;28;84835;-65
2022/08/21 10:41:40;;;;;;;37.53;19.15;;;27.80;78.10;;;;;;6044609;28;86330;-63
2022/08/21 10:44:41;;;;;;;30.80;17.58;;;27.70;77.40;;;;;;6118839;28;82964;-62
2022/08/21 10:50:53;;;;;;;34.22;18.23;;;27.50;77.60;;;;;;6152653;23;87613;-61
2022/08/21 10:53:53;;;;;;;31.27;19.67;;;27.20;78.70;;;;;;6162979;23;86486;-59
2022/08/21 10:56:54;;;;;;;31.30;18.80;;;27.00;80.50;;;;;;6167419;28;83020;-60
2022/08/21 10:59:54;;;;;;;31.50;18.35;;;26.90;81.20;;;;;;6170508;28;83519;-60
2022/08/21 11:02:55;;;;;;;29.88;18.23;;;26.70;80.70;;;;;;6160943;28;83700;-60
2022/08/21 11:05:55;;;;;;;21.98;13.27;;;26.90;81.30;;;;;;6172320;28;83006;-59
2022/08/21 11:08:57;;;;;;;21.52;11.02;;;26.90;77.90;;;;;;6171521;28;86761;-59
2022/08/21 11:11:57;;;;;;;22.70;10.70;;;27.00;77.70;;;;;;6170559;28;83110;-58
2022/08/21 11:14:58;;;;;;;12.93;8.20;;;27.20;76.30;;;;;;6170667;28;83168;-58
2022/08/21 11:17:58;;;;;;;13.52;8.85;;;27.10;75.30;;;;;;6166859;28;82979;-58
2022/08/21 11:20:59;;;;;;;14.30;7.13;;;27.20;75.10;;;;;;6173564;28;80327;-60
2022/08/21 11:24:03;;;;;;;16.65;7.57;;;27.30;74.30;;;;;;6173760;28;80996;-59
2022/08/21 11:27:03;;;;;;;15.65;5.78;;;27.40;73.60;;;;;;6173059;28;85075;-59
2022/08/21 11:30:04;;;;;;;8.48;5.55;;;27.50;72.90;;;;;;6174481;28;81220;-59
2022/08/21 11:33:04;;;;;;;9.43;5.18;;;27.50;72.40;;;;;;6168374;28;80504;-60
2022/08/21 11:36:05;;;;;;;5.82;4.15;;;27.60;72.30;;;;;;6171850;28;82494;-59
2022/08/21 11:39:05;;;;;;;7.43;4.72;;;27.60;71.90;;;;;;6169214;28;81407;-59
2022/08/21 11:42:06;;;;;;;6.13;3.58;;;27.60;71.40;;;;;;6149204;28;82843;-60
2022/08/21 11:45:07;;;;;;;5.07;3.08;;;27.50;70.80;;;;;;6159423;28;83268;-60
2022/08/21 11:48:07;;;;;;;5.38;3.17;;;27.30;71.00;;;;;;6164452;28;83511;-61
2022/08/21 11:51:08;;;;;;;5.35;3.13;;;27.20;71.70;;;;;;6147074;28;82235;-60
2022/08/21 11:54:08;;;;;;;3.83;2.72;;;27.00;71.70;;;;;;6081413;28;84839;-59
2022/08/21 11:57:09;;;;;;;2.95;2.53;;;27.10;71.60;;;;;;6067782;28;87383;-60
2022/08/21 12:00:10;;;;;;;11.75;2.97;;;27.00;71.40;;;;;;6162302;28;80420;-60
2022/08/21 12:03:14;;;;;;;5.47;3.55;;;27.00;71.50;;;;;;6152875;28;88257;-60
2022/08/21 12:06:14;;;;;;;5.78;3.38;;;27.20;70.60;;;;;;6154897;28;80269;-60
2022/08/21 12:09:15;;;;;;;4.03;2.25;;;27.30;70.50;;;;;;6154801;28;80639;-60
2022/08/21 12:12:15;;;;;;;3.30;2.42;;;27.30;70.10;;;;;;6150354;28;82716;-58
2022/08/21 12:15:16;;;;;;;4.38;3.40;;;27.40;69.90;;;;;;6158410;28;81859;-59
2022/08/21 12:18:16;;;;;;;5.18;3.47;;;27.40;69.60;;;;;;6170764;28;81812;-59
2022/08/21 12:21:18;;;;;;;4.57;2.22;;;27.40;69.60;;;;;;6162730;28;83579;-58
2022/08/21 12:24:19;;;;;;;3.53;2.53;;;27.50;69.70;;;;;;6172093;28;81177;-59
2022/08/21 12:27:20;;;;;;;3.33;2.50;;;27.50;69.70;;;;;;6155203;28;81473;-60
2022/08/21 12:30:21;;;;;;;3.40;2.55;;;27.50;69.80;;;;;;6156001;28;80825;-59
2022/08/21 12:33:21;;;;;;;7.10;3.33;;;27.50;69.50;;;;;;6156612;28;80908;-58
2022/08/21 12:36:22;;;;;;;4.65;2.45;;;27.50;69.80;;;;;;6169590;28;81062;-58
2022/08/21 12:39:22;;;;;;;2.95;2.35;;;27.50;69.70;;;;;;6166798;28;80903;-59
2022/08/21 12:42:23;;;;;;;3.10;2.53;;;27.50;69.50;;;;;;6163284;28;82060;-62
2022/08/21 12:45:23;;;;;;;6.05;3.13;;;27.50;69.60;;;;;;6157014;28;80287;-61
2022/08/21 12:48:24;;;;;;;6.10;3.17;;;27.50;69.60;;;;;;6167070;28;84079;-61
2022/08/21 12:51:24;;;;;;;5.05;2.92;;;27.50;69.80;;;;;;6172699;28;80341;-61
2022/08/21 12:54:25;;;;;;;6.18;2.80;;;27.50;69.90;;;;;;6156098;28;80968;-60
2022/08/21 12:57:25;;;;;;;3.47;2.88;;;27.50;70.60;;;;;;6160274;28;80659;-58
2022/08/21 13:00:26;;;;;;;4.47;3.28;;;27.50;70.40;;;;;;6163996;28;82245;-61
2022/08/21 13:03:27;;;;;;;3.95;2.85;;;27.40;71.10;;;;;;6161814;28;81099;-62
2022/08/21 13:06:27;;;;;;;3.03;2.70;;;27.30;71.10;;;;;;6115014;28;82746;-62
2022/08/21 13:09:28;;;;;;;4.35;3.10;;;27.30;71.50;;;;;;6100798;28;85553;-62
2022/08/21 13:12:28;;;;;;;4.35;2.63;;;27.20;71.00;;;;;;6153761;28;80672;-61
2022/08/21 13:15:29;;;;;;;3.65;2.78;;;27.20;71.60;;;;;;6105209;28;86602;-70
2022/08/21 13:18:29;;;;;;;5.00;2.92;;;27.20;71.00;;;;;;6161560;28;80726;-60
2022/08/21 13:21:30;;;;;;;3.72;2.38;;;27.20;71.20;;;;;;6170725;28;80569;-60
2022/08/21 13:24:30;;;;;;;5.53;2.88;;;27.10;70.60;;;;;;6169737;28;87116;-60
2022/08/21 13:27:31;;;;;;;4.70;3.25;;;26.90;71.70;;;;;;6168937;28;81466;-63
2022/08/21 13:30:32;;;;;;;4.32;3.03;;;27.10;71.50;;;;;;6141766;28;81744;-60
2022/08/21 13:33:32;;;;;;;5.88;3.08;;;27.00;71.10;;;;;;6146368;28;82368;-59
2022/08/21 13:36:33;;;;;;;3.65;2.95;;;27.10;71.60;;;;;;6170193;28;86281;-61
2022/08/21 13:39:33;;;;;;;4.25;3.00;;;27.10;71.90;;;;;;6172861;28;81435;-60
2022/08/21 13:42:33;;;;;;;2.45;2.20;;;27.00;71.80;;;;;;6172015;28;80816;-59
2022/08/21 13:45:34;;;;;;;5.03;2.72;;;27.00;71.90;;;;;;6164846;28;81797;-60
2022/08/21 13:48:34;;;;;;;3.15;2.55;;;27.10;71.90;;;;;;6164537;28;80370;-61
2022/08/21 13:51:35;;;;;;;4.90;2.45;;;27.10;71.80;;;;;;6163924;28;80760;-61
2022/08/21 13:54:36;;;;;;;2.95;2.40;;;27.10;71.30;;;;;;6174300;28;80105;-62
2022/08/21 13:57:36;;;;;;;5.63;2.70;;;27.10;71.30;;;;;;6169185;28;80982;-64
2022/08/21 14:00:37;;;;;;;4.05;2.97;;;27.10;71.20;;;;;;6173637;28;82479;-63
2022/08/21 14:03:37;;;;;;;6.32;4.35;;;27.00;71.40;;;;;;6175207;28;81188;-64
2022/08/21 14:06:38;;;;;;;5.85;3.42;;;27.00;71.80;;;;;;6171464;28;80859;-63
2022/08/21 14:09:38;;;;;;;5.05;3.38;;;27.00;71.80;;;;;;6172125;28;83789;-62
2022/08/21 14:12:39;;;;;;;3.92;3.53;;;27.00;71.90;;;;;;6170247;28;81009;-61
2022/08/21 14:15:39;;;;;;;3.90;2.90;;;27.00;71.90;;;;;;6172357;28;83403;-62
2022/08/21 14:18:40;;;;;;;3.53;2.70;;;27.00;72.10;;;;;;6174677;28;80377;-62
2022/08/21 14:21:43;;;;;;;4.68;2.90;;;26.90;72.00;;;;;;6141867;28;85413;-61
2022/08/21 14:24:43;;;;;;;5.05;3.67;;;26.90;72.00;;;;;;6169107;28;80649;-63
2022/08/21 14:27:44;;;;;;;4.60;2.90;;;26.90;72.00;;;;;;6171090;28;80615;-59
2022/08/21 14:30:45;;;;;;;3.90;2.75;;;26.80;72.50;;;;;;6172309;28;81195;-57
2022/08/21 14:33:45;;;;;;;3.70;2.78;;;26.80;72.70;;;;;;6168770;28;80279;-61
2022/08/21 14:36:46;;;;;;;3.42;2.90;;;26.80;72.80;;;;;;6169897;28;80821;-60
2022/08/21 14:39:47;;;;;;;8.15;2.95;;;26.70;73.10;;;;;;6170962;28;80434;-59
2022/08/21 14:42:49;;;;;;;5.93;2.95;;;26.80;73.20;;;;;;6171327;28;80966;-58
2022/08/21 14:45:49;;;;;;;4.30;2.88;;;26.90;72.90;;;;;;6172946;28;80876;-58
2022/08/21 14:48:50;;;;;;;6.22;2.88;;;26.90;72.60;;;;;;6173223;28;82080;-59
2022/08/21 14:51:56;;;;;;;4.40;2.40;;;26.90;72.60;;;;;;6171433;28;82217;-59
2022/08/21 14:54:57;;;;;;;4.47;3.08;;;26.80;72.80;;;;;;6173095;28;80410;-60
2022/08/21 14:57:57;;;;;;;3.85;2.63;;;26.90;72.70;;;;;;6171536;28;80348;-59
2022/08/21 15:00:58;;;;;;;3.05;2.33;;;26.90;72.80;;;;;;6169377;28;80268;-59
2022/08/21 15:03:58;;;;;;;2.97;2.50;;;26.90;72.60;;;;;;6172577;28;80414;-59
2022/08/21 15:06:58;;;;;;;3.38;2.60;;;26.80;72.90;;;;;;6172195;28;80801;-60
2022/08/21 15:09:59;;;;;;;2.33;2.10;;;26.80;72.90;;;;;;6171865;28;80260;-61
2022/08/21 15:13:00;;;;;;;4.75;3.00;;;26.80;72.80;;;;;;6172831;28;83011;-59
2022/08/21 15:16:00;;;;;;;2.15;1.95;;;26.80;72.70;;;;;;6172165;28;83425;-59
2022/08/21 15:19:01;;;;;;;2.90;2.28;;;26.80;72.90;;;;;;6171110;28;80701;-59
2022/08/21 15:22:01;;;;;;;3.92;2.22;;;26.70;72.90;;;;;;6175513;28;82859;-60
2022/08/21 15:25:02;;;;;;;4.15;2.10;;;26.60;72.70;;;;;;6169257;28;80448;-60
2022/08/21 15:28:03;;;;;;;3.92;2.55;;;26.60;72.70;;;;;;6173749;28;80574;-58
2022/08/21 15:31:03;;;;;;;2.60;2.33;;;26.60;72.60;;;;;;6161116;28;85637;-59
2022/08/21 15:34:03;;;;;;;4.22;2.70;;;26.60;72.50;;;;;;6166118;28;82682;-59
2022/08/21 15:37:07;;;;;;;2.90;2.55;;;26.60;71.70;;;;;;6161576;28;80564;-60
2022/08/21 15:40:08;;;;;;;3.65;2.55;;;26.40;72.10;;;;;;6170937;28;83091;-60
2022/08/21 15:43:08;;;;;;;3.40;2.67;;;26.30;72.00;;;;;;6175185;28;84529;-59
2022/08/21 15:46:09;;;;;;;4.07;3.35;;;26.20;72.50;;;;;;6178221;28;83002;-59
2022/08/21 15:49:09;;;;;;;2.92;2.67;;;26.10;72.50;;;;;;6169066;28;87031;-61
2022/08/21 15:52:10;;;;;;;5.55;3.83;;;26.20;72.60;;;;;;6168808;28;81502;-58
2022/08/21 15:55:10;;;;;;;7.85;3.60;;;26.30;72.00;;;;;;6175290;28;87209;-61
2022/08/21 15:58:11;;;;;;;3.75;3.03;;;26.30;71.70;;;;;;6159028;28;82494;-59
2022/08/21 16:01:11;;;;;;;4.93;3.35;;;26.40;71.30;;;;;;6174487;28;81091;-61
2022/08/21 16:04:12;;;;;;;5.30;3.40;;;26.40;70.80;;;;;;6174818;28;80724;-57
2022/08/21 16:07:12;;;;;;;4.68;3.45;;;26.20;71.20;;;;;;6159152;28;83450;-58
2022/08/21 16:10:13;;;;;;;8.55;4.10;;;26.10;72.10;;;;;;6157213;28;80259;-58
2022/08/21 16:13:13;;;;;;;9.13;4.72;;;25.70;73.40;;;;;;6160309;28;83527;-59
2022/08/21 16:16:14;;;;;;;9.32;4.88;;;25.50;74.20;;;;;;6156234;28;82084;-58
2022/08/21 16:19:14;;;;;;;5.68;3.88;;;24.90;76.40;;;;;;6161415;28;80540;-59
2022/08/21 16:22:15;;;;;;;5.00;3.67;;;24.30;79.00;;;;;;6164004;28;80790;-60
2022/08/21 16:25:15;;;;;;;9.43;5.53;;;24.10;80.10;;;;;;6161881;28;81927;-59
2022/08/21 16:28:16;;;;;;;7.38;4.78;;;24.00;80.90;;;;;;6164881;28;80488;-59
2022/08/21 16:31:16;;;;;;;7.28;4.30;;;24.20;80.70;;;;;;6174551;28;80497;-59
2022/08/21 16:34:17;;;;;;;7.20;4.18;;;24.30;79.00;;;;;;6167189;28;80439;-59
2022/08/21 16:37:17;;;;;;;4.50;3.53;;;24.30;79.60;;;;;;6159432;28;81463;-60
2022/08/21 16:40:18;;;;;;;4.97;3.25;;;24.10;79.50;;;;;;6172578;28;80632;-62
2022/08/21 16:43:18;;;;;;;3.08;2.72;;;24.10;79.90;;;;;;6157499;28;87406;-65
2022/08/21 16:53:11;;;;;;;4.03;2.70;;;24.60;78.20;;;;;;6137667;28;82152;-61
2022/08/21 16:56:11;;;;;;;6.05;3.58;;;24.90;77.30;;;;;;6131883;28;80901;-61
2022/08/21 16:59:12;;;;;;;6.28;3.15;;;25.00;76.90;;;;;;6149499;28;84003;-61
2022/08/21 17:02:13;;;;;;;17.50;3.30;;;25.20;76.60;;;;;;6120498;28;83212;-60
2022/08/21 17:05:13;;;;;;;4.47;2.70;;;25.30;75.40;;;;;;6143070;28;80488;-60
2022/08/21 17:08:14;;;;;;;8.57;2.63;;;25.20;76.30;;;;;;6163287;28;80646;-60
2022/08/21 17:11:14;;;;;;;3.17;2.50;;;25.10;75.80;;;;;;6143342;28;87549;-59
2022/08/21 17:14:15;;;;;;;4.43;2.20;;;25.10;75.40;;;;;;6148884;28;80425;-60
2022/08/21 17:17:15;;;;;;;2.28;1.55;;;24.90;76.30;;;;;;6137148;28;80876;-61
2022/08/21 17:20:16;;;;;;;10.90;5.05;;;25.00;76.10;;;;;;6146687;28;83720;-59
2022/08/21 17:23:16;;;;;;;4.55;2.92;;;24.80;76.60;;;;;;6164370;28;82271;-59
2022/08/21 17:26:18;;;;;;;5.03;2.47;;;24.70;76.90;;;;;;6129317;28;80464;-62
2022/08/21 17:29:18;;;;;;;3.40;2.80;;;24.60;77.40;;;;;;6158046;28;81012;-61
2022/08/21 17:32:19;;;;;;;3.45;2.40;;;24.50;77.50;;;;;;6134074;28;81123;-66
2022/08/21 17:35:19;;;;;;;5.95;2.55;;;24.60;76.60;;;;;;6162091;28;81074;-60
2022/08/21 17:38:20;;;;;;;4.47;2.60;;;24.80;76.30;;;;;;6149253;28;80623;-61
2022/08/21 17:41:21;;;;;;;3.03;2.15;;;24.40;76.10;;;;;;6160170;28;80341;-61
2022/08/21 17:44:21;;;;;;;7.28;4.95;;;24.40;76.90;;;;;;6143315;28;80998;-60
2022/08/21 17:47:22;;;;;;;5.00;3.35;;;24.10;77.10;;;;;;6150140;28;80736;-61
2022/08/21 17:50:22;;;;;;;3.63;2.75;;;24.30;77.20;;;;;;6171888;28;80283;-59
2022/08/21 17:53:23;;;;;;;5.63;2.60;;;24.00;77.10;;;;;;6166475;28;81340;-60
2022/08/21 17:56:23;;;;;;;2.67;2.15;;;23.40;78.70;;;;;;6131593;28;88106;-62
2022/08/21 17:59:24;;;;;;;2.35;1.77;;;23.20;80.00;;;;;;6152686;28;83389;-59
2022/08/21 18:02:24;;;;;;;4.97;2.22;;;23.30;80.50;;;;;;6148490;28;81061;-60
2022/08/21 18:05:25;;;;;;;3.58;2.20;;;23.30;80.10;;;;;;6158697;28;80390;-59
2022/08/21 18:08:25;;;;;;;20.17;2.58;;;23.30;80.10;;;;;;6158161;28;81119;-60
2022/08/21 18:11:26;;;;;;;3.25;1.80;;;23.40;79.20;;;;;;6165630;28;81105;-60
2022/08/21 18:14:26;;;;;;;4.88;3.95;;;23.30;79.50;;;;;;6153321;28;81245;-60
2022/08/21 18:17:29;;;;;;;3.30;2.70;;;23.30;79.90;;;;;;6159557;28;81047;-60
2022/08/21 18:20:29;;;;;;;5.82;3.10;;;23.50;78.90;;;;;;6155120;28;81493;-60
2022/08/21 18:23:30;;;;;;;4.20;2.83;;;23.40;78.20;;;;;;6155353;28;81288;-60
2022/08/21 18:26:30;;;;;;;2.70;2.45;;;23.40;78.70;;;;;;6154514;28;80869;-60
2022/08/21 18:29:31;;;;;;;3.40;2.72;;;23.70;77.70;;;;;;6151335;28;80414;-60
2022/08/21 18:32:32;;;;;;;2.58;2.17;;;23.80;76.90;;;;;;6164117;28;80572;-62
2022/08/21 18:35:32;;;;;;;2.95;2.10;;;23.70;77.50;;;;;;6152435;28;80485;-61
2022/08/21 18:38:34;;;;;;;2.65;2.28;;;23.80;77.00;;;;;;6154755;28;81422;-60
2022/08/21 18:41:34;;;;;;;7.50;4.13;;;23.70;77.40;;;;;;6156893;28;81489;-60
2022/08/21 18:44:35;;;;;;;6.88;3.35;;;23.80;77.40;;;;;;6149703;28;81054;-60
2022/08/21 18:47:35;;;;;;;4.88;2.85;;;23.70;77.20;;;;;;6150191;28;86542;-62
2022/08/21 18:50:36;;;;;;;2.88;2.58;;;23.60;76.90;;;;;;6155195;28;80995;-61
2022/08/21 18:53:37;;;;;;;5.10;2.67;;;23.60;77.50;;;;;;6161298;28;82228;-61
2022/08/21 18:56:37;;;;;;;4.07;3.15;;;23.60;76.40;;;;;;6058115;28;87188;-61
2022/08/21 18:59:38;;;;;;;5.18;3.03;;;23.50;77.40;;;;;;6157930;28;81129;-61
2022/08/21 19:02:39;;;;;;;4.43;2.70;;;23.60;77.10;;;;;;6121167;28;83987;-62
2022/08/21 19:05:42;;;;;;;2.65;2.45;;;23.60;77.00;;;;;;6132601;28;81074;-60
2022/08/21 19:08:42;;;;;;;4.57;3.00;;;23.60;77.40;;;;;;6134618;28;84244;-59
2022/08/21 19:11:43;;;;;;;3.17;2.60;;;23.80;76.60;;;;;;6147303;28;81399;-61
2022/08/21 19:14:43;;;;;;;3.50;2.60;;;23.70;76.70;;;;;;6127920;28;81099;-61
2022/08/21 19:17:44;;;;;;;7.07;3.85;;;23.90;75.90;;;;;;6133255;28;83014;-63
2022/08/21 19:20:44;;;;;;;5.45;3.00;;;23.80;75.70;;;;;;6145648;28;84189;-61
2022/08/21 19:23:47;;;;;;;4.05;3.30;;;23.80;76.00;;;;;;6129334;28;81145;-62
2022/08/21 19:26:47;;;;;;;4.97;3.28;;;23.80;75.50;;;;;;6130948;28;83414;-60
2022/08/21 19:29:48;;;;;;;4.25;2.95;;;23.80;76.00;;;;;;6126278;28;81840;-63
2022/08/21 19:32:49;;;;;;;6.28;3.20;;;23.90;76.20;;;;;;6108289;28;83237;-64
2022/08/21 19:35:49;;;;;;;8.95;3.40;;;23.80;75.60;;;;;;6137904;28;82696;-61
2022/08/21 19:38:50;;;;;;;4.43;2.78;;;23.90;75.40;;;;;;6146024;28;81388;-62
2022/08/21 19:41:50;;;;;;;5.78;4.03;;;23.90;75.40;;;;;;6145838;28;81669;-60
2022/08/21 19:44:51;;;;;;;4.03;2.60;;;23.90;74.70;;;;;;6144594;28;80676;-59
2022/08/21 19:47:51;;;;;;;4.55;3.15;;;23.80;75.20;;;;;;6147970;28;87631;-58
2022/08/21 19:50:52;;;;;;;4.32;3.28;;;23.90;75.30;;;;;;6145099;28;81149;-61
2022/08/21 20:12:33;;;;;;;6.18;3.30;;;24.20;73.50;;;;;;6119350;28;82411;-61
2022/08/21 20:15:35;;;;;;;9.02;5.50;;;23.90;73.90;;;;;;6123592;28;85949;-61
2022/08/21 20:18:35;;;;;;;6.43;4.10;;;23.50;75.30;;;;;;6119429;28;84698;-60
2022/08/21 20:21:36;;;;;;;4.55;3.10;;;23.20;76.90;;;;;;6113684;28;80831;-63
2022/08/21 20:24:36;;;;;;;4.55;2.88;;;23.40;76.20;;;;;;6121073;28;80811;-62
2022/08/21 20:27:37;;;;;;;4.15;2.83;;;23.20;76.80;;;;;;6146735;28;80901;-62
2022/08/21 20:30:37;;;;;;;3.80;2.70;;;23.10;77.10;;;;;;6146786;28;80469;-60
2022/08/21 20:33:38;;;;;;;3.90;2.50;;;23.40;76.60;;;;;;6142177;28;83163;-64
2022/08/21 20:36:38;;;;;;;3.38;2.58;;;23.40;76.80;;;;;;6149626;28;80291;-61
2022/08/21 20:39:39;;;;;;;5.13;3.30;;;23.60;75.80;;;;;;6157973;28;80730;-60
2022/08/21 20:42:40;;;;;;;3.08;2.33;;;23.90;75.00;;;;;;6137073;28;83464;-61
2022/08/21 20:45:40;;;;;;;4.40;2.22;;;23.90;74.10;;;;;;6141418;28;86376;-61
2022/08/21 20:48:41;;;;;;;3.30;2.38;;;24.00;74.30;;;;;;6154783;28;80636;-61
2022/08/21 20:51:41;;;;;;;3.70;2.05;;;23.90;74.10;;;;;;6154465;28;80966;-61
2022/08/21 20:54:42;;;;;;;3.97;2.35;;;23.80;74.20;;;;;;6127107;28;84938;-60
2022/08/21 20:57:43;;;;;;;7.25;2.50;;;23.90;73.80;;;;;;6158663;28;83108;-61
2022/08/21 21:00:43;;;;;;;4.32;2.72;;;23.90;73.50;;;;;;6173761;28;80917;-61
2022/08/21 21:03:44;;;;;;;8.00;5.43;;;23.60;74.50;;;;;;6149911;28;81530;-63
2022/08/21 21:06:44;;;;;;;7.78;3.85;;;23.40;75.20;;;;;;6140514;28;83540;-60
2022/08/21 21:09:44;;;;;;;3.10;2.40;;;23.20;76.50;;;;;;6152080;28;82737;-59
2022/08/21 21:12:45;;;;;;;2.22;1.85;;;23.20;76.60;;;;;;6128862;28;85642;-60
2022/08/21 21:15:46;;;;;;;3.10;2.17;;;23.30;75.80;;;;;;6136565;28;80680;-60
2022/08/21 21:18:46;;;;;;;2.17;1.85;;;23.50;75.20;;;;;;6144895;28;81000;-60
2022/08/21 21:21:47;;;;;;;3.45;1.98;;;23.50;75.50;;;;;;6127591;28;81288;-59
2022/08/21 21:24:49;;;;;;;2.67;1.67;;;23.60;74.80;;;;;;6144256;28;80507;-61
2022/08/21 21:27:49;;;;;;;2.10;1.88;;;23.40;74.80;;;;;;6127806;28;82200;-60
2022/08/21 21:30:50;;;;;;;2.58;2.10;;;23.30;75.40;;;;;;6161770;28;80844;-60
2022/08/21 21:33:50;;;;;;;6.97;4.05;;;23.40;75.90;;;;;;6149126;28;80507;-60
2022/08/21 21:36:51;;;;;;;4.10;2.50;;;23.60;75.50;;;;;;6147562;28;81765;-60
2022/08/21 21:39:51;;;;;;;3.55;2.50;;;23.70;74.70;;;;;;6148986;28;80828;-61
2022/08/21 21:42:52;;;;;;;2.53;1.92;;;23.90;74.10;;;;;;6144620;28;83853;-60
2022/08/21 21:45:52;;;;;;;2.75;1.90;;;24.00;73.30;;;;;;6161530;28;80910;-59
2022/08/21 21:48:53;;;;;;;4.20;2.47;;;24.00;72.90;;;;;;6142803;28;83019;-58
2022/08/21 21:51:53;;;;;;;2.30;1.80;;;24.10;72.60;;;;;;6160405;28;80725;-59
2022/08/21 21:54:54;;;;;;;3.25;2.00;;;24.20;73.20;;;;;;6157796;28;80653;-58
2022/08/21 21:57:54;;;;;;;3.70;1.80;;;24.30;72.00;;;;;;6157586;28;80356;-59
2022/08/21 22:00:55;;;;;;;2.40;2.15;;;24.20;72.10;;;;;;6149664;28;80184;-60
2022/08/21 22:03:55;;;;;;;2.63;1.83;;;24.00;72.60;;;;;;6148359;28;80686;-59
2022/08/21 22:06:56;;;;;;;1.83;1.73;;;23.90;72.90;;;;;;6150302;28;81030;-58
2022/08/21 22:09:56;;;;;;;3.03;2.20;;;23.60;73.60;;;;;;6147207;28;80555;-60
2022/08/21 22:12:58;;;;;;;4.20;2.13;;;23.50;74.40;;;;;;6147530;28;80914;-59
2022/08/21 22:15:58;;;;;;;2.92;1.98;;;23.70;74.00;;;;;;6143176;28;80264;-60
2022/08/21 22:18:59;;;;;;;4.82;1.90;;;23.70;74.00;;;;;;6151894;28;80763;-60
2022/08/21 22:21:59;;;;;;;2.20;2.00;;;23.70;74.00;;;;;;6143764;28;80353;-59
2022/08/21 22:25:00;;;;;;;2.42;1.77;;;23.80;73.60;;;;;;6148237;28;82164;-61
2022/08/21 22:28:00;;;;;;;3.35;1.92;;;23.70;73.80;;;;;;6147108;28;80780;-60
2022/08/21 22:31:01;;;;;;;2.22;1.85;;;23.60;74.60;;;;;;6149288;28;80981;-59
2022/08/21 22:34:01;;;;;;;2.80;2.05;;;23.80;73.70;;;;;;6148271;28;80507;-59
2022/08/21 22:37:01;;;;;;;7.45;2.40;;;23.50;74.40;;;;;;6149649;28;81498;-59
2022/08/21 22:40:03;;;;;;;2.30;1.40;;;23.60;74.10;;;;;;6148002;28;82003;-59
2022/08/21 22:43:03;;;;;;;1.73;1.60;;;23.30;75.30;;;;;;6150168;28;83095;-60
2022/08/21 22:46:04;;;;;;;3.40;2.20;;;23.00;76.70;;;;;;6153939;28;80741;-60
2022/08/21 22:49:04;;;;;;;2.80;1.92;;;22.80;77.50;;;;;;6151983;28;80854;-60
2022/08/21 22:52:05;;;;;;;1.90;1.67;;;22.80;77.60;;;;;;6140250;28;80895;-60
2022/08/21 22:55:05;;;;;;;1.98;1.75;;;22.70;78.20;;;;;;6153014;28;83854;-60
2022/08/21 22:58:06;;;;;;;3.78;1.67;;;22.80;77.70;;;;;;6150890;28;80629;-60
2022/08/21 23:01:06;;;;;;;1.67;1.35;;;22.70;77.80;;;;;;6163536;28;83749;-60
2022/08/21 23:04:07;;;;;;;1.70;1.48;;;22.60;78.80;;;;;;6156395;28;84435;-61
2022/08/21 23:07:07;;;;;;;2.92;1.60;;;22.80;78.00;;;;;;6154812;28;80430;-58
2022/08/21 23:10:08;;;;;;;1.70;1.60;;;23.00;78.00;;;;;;6136079;28;80963;-58
2022/08/21 23:13:08;;;;;;;1.88;1.55;;;23.10;76.60;;;;;;6153383;28;81363;-59
2022/08/21 23:16:09;;;;;;;1.55;1.23;;;23.30;76.00;;;;;;6151098;28;80708;-58
2022/08/21 23:19:10;;;;;;;4.38;1.60;;;23.50;75.10;;;;;;6168165;28;81385;-58
2022/08/21 23:22:10;;;;;;;1.98;1.60;;;23.30;75.50;;;;;;6163297;28;85813;-59
2022/08/21 23:25:11;;;;;;;1.73;1.48;;;23.20;76.50;;;;;;6164247;28;80472;-59
2022/08/21 23:28:11;;;;;;;2.15;1.40;;;23.20;76.50;;;;;;6150643;28;80804;-59
2022/08/21 23:31:12;;;;;;;1.50;1.40;;;23.00;77.50;;;;;;6152156;28;80905;-60
2022/08/21 23:34:12;;;;;;;3.25;1.52;;;23.10;76.90;;;;;;6151578;28;80777;-58
2022/08/21 23:40:33;;;;;;;1.83;1.40;;;23.20;76.40;;;;;;6148412;28;81019;-58
2022/08/21 23:43:36;;;;;;;1.63;1.40;;;23.20;76.30;;;;;;6153423;28;87945;-59
2022/08/21 23:46:36;;;;;;;1.50;1.40;;;23.30;76.20;;;;;;6151062;28;81040;-60
2022/08/21 23:49:37;;;;;;;2.05;1.20;;;23.50;75.30;;;;;;6149370;28;80596;-60
2022/08/21 23:52:37;;;;;;;2.63;1.50;;;23.40;75.40;;;;;;6151830;28;80502;-59
2022/08/21 23:55:38;;;;;;;2.05;1.40;;;23.40;75.90;;;;;;6148751;28;85606;-60
2022/08/21 23:58:38;;;;;;;1.60;1.50;;;23.50;75.30;;;;;;6151068;28;80552;-58
